createdAt,value
2022-07-26T00:00:54.629Z,22.85
2022-07-26T00:06:57.016Z,7.65
2022-07-26T00:12:59.378Z,8.70
2022-07-26T00:19:01.831Z,17.33
2022-07-26T00:25:06.623Z,15.60
2022-07-26T00:31:10.251Z,9.80
2022-07-26T00:37:15.961Z,11.07
2022-07-26T00:43:22.013Z,12.80
2022-07-26T00:49:24.337Z,9.70
2022-07-26T00:55:27.571Z,11.90
2022-07-26T01:01:30.003Z,19.40
2022-07-26T01:07:32.559Z,15.02
2022-07-26T01:13:35.660Z,14.48
2022-07-26T01:19:38.272Z,20.25
2022-07-26T01:25:43.186Z,12.70
2022-07-26T01:31:46.030Z,17.80
2022-07-26T01:37:48.298Z,21.75
2022-07-26T01:43:50.655Z,20.60
2022-07-26T01:49:53.126Z,11.15
2022-07-26T01:55:55.779Z,25.00
2022-07-26T02:01:58.035Z,19.13
2022-07-26T02:08:00.582Z,17.75
2022-07-26T02:14:04.051Z,14.95
2022-07-26T02:20:07.738Z,21.50
2022-07-26T02:26:10.014Z,11.88
2022-07-26T02:32:12.507Z,15.98
2022-07-26T02:38:15.887Z,13.55
2022-07-26T02:44:18.065Z,12.63
2022-07-26T02:56:23.675Z,13.73
2022-07-26T03:02:26.138Z,13.35
2022-07-26T03:08:28.596Z,10.48
2022-07-26T03:14:30.983Z,14.52
2022-07-26T03:20:33.259Z,15.93
2022-07-26T03:26:35.523Z,12.02
2022-07-26T03:38:40.333Z,17.35
2022-07-26T03:44:42.784Z,14.20
2022-07-26T03:50:45.152Z,14.88
2022-07-26T03:56:47.658Z,21.85
2022-07-26T04:02:50.029Z,19.67
2022-07-26T04:08:52.447Z,16.10
2022-07-26T04:14:54.917Z,15.00
2022-07-26T04:20:57.364Z,17.42
2022-07-26T04:26:59.610Z,21.25
2022-07-26T04:33:02.169Z,21.17
2022-07-26T04:39:04.764Z,8.55
2022-07-26T04:45:08.696Z,17.95
2022-07-26T04:51:11.302Z,18.48
2022-07-26T04:57:13.852Z,18.02
2022-07-26T05:03:16.216Z,22.85
2022-07-26T05:09:18.739Z,20.17
2022-07-26T05:15:21.062Z,12.23
2022-07-26T05:21:23.501Z,12.45
2022-07-26T05:27:25.753Z,23.38
2022-07-26T05:33:28.013Z,17.85
2022-07-26T05:39:30.269Z,19.40
2022-07-26T05:45:32.844Z,27.23
2022-07-26T05:51:50.319Z,21.63
2022-07-26T05:57:52.813Z,19.70
2022-07-26T06:03:55.541Z,16.20
2022-07-26T06:09:57.924Z,19.30
2022-07-26T06:16:01.169Z,28.58
2022-07-26T06:22:04.089Z,18.48
2022-07-26T06:28:08.791Z,13.60
2022-07-26T06:34:11.599Z,16.98
2022-07-26T06:40:14.516Z,21.90
2022-07-26T06:46:17.243Z,15.88
2022-07-26T06:52:19.685Z,15.13
2022-07-26T06:58:21.828Z,27.15
2022-07-26T07:04:24.413Z,32.45
2022-07-26T07:10:26.622Z,14.68
2022-07-26T07:16:29.750Z,16.25
2022-07-26T07:22:32.812Z,14.23
2022-07-26T07:28:38.690Z,13.35
2022-07-26T07:34:40.966Z,17.77
2022-07-26T07:40:43.670Z,15.55
2022-07-26T07:46:46.020Z,16.33
2022-07-26T07:52:48.306Z,22.85
2022-07-26T07:58:52.257Z,31.00
2022-07-26T08:04:55.989Z,11.90
2022-07-26T08:11:02.491Z,21.77
2022-07-26T08:17:06.367Z,12.70
2022-07-26T08:23:08.813Z,10.25
2022-07-26T08:29:11.384Z,10.80
2022-07-26T08:35:19.596Z,25.70
2022-07-26T08:41:23.620Z,13.93
2022-07-26T08:47:35.641Z,7.60
2022-07-26T08:53:40.461Z,22.45
2022-07-26T08:59:43.230Z,17.95
2022-07-26T09:05:45.654Z,16.77
2022-07-26T09:11:48.095Z,11.55
2022-07-26T09:17:54.150Z,11.75
2022-07-26T09:23:56.668Z,10.32
2022-07-26T09:30:06.390Z,7.80
2022-07-26T09:36:09.427Z,10.93
2022-07-26T09:42:28.478Z,14.63
2022-07-26T09:48:52.326Z,15.75
2022-07-26T09:54:53.973Z,14.68
2022-07-26T10:01:02.031Z,121.30
2022-07-26T10:07:04.923Z,11.13
2022-07-26T10:13:08.912Z,7.10
2022-07-26T10:19:31.061Z,7.38
2022-07-26T10:25:36.861Z,13.07
2022-07-26T10:31:39.112Z,6.75
2022-07-26T10:38:01.784Z,6.82
2022-07-26T10:44:20.982Z,14.18
2022-07-26T10:50:33.206Z,15.35
2022-07-26T10:56:35.551Z,9.98
2022-07-26T11:02:38.607Z,12.65
2022-07-26T11:08:44.639Z,15.23
2022-07-26T11:20:55.227Z,10.48
2022-07-26T11:27:02.589Z,9.73
2022-07-26T11:33:04.946Z,10.80
2022-07-26T11:39:10.776Z,7.05
2022-07-26T11:45:13.357Z,10.18
2022-07-26T11:51:21.075Z,15.05
2022-07-26T11:57:32.249Z,12.70
2022-07-26T12:03:39.222Z,16.77
2022-07-26T12:09:47.468Z,10.68
2022-07-26T12:15:52.019Z,14.15
2022-07-26T12:22:12.299Z,8.95
2022-07-26T12:28:16.071Z,17.17
2022-07-26T12:34:22.051Z,9.52
2022-07-26T12:40:26.296Z,35.53
2022-07-26T12:46:32.012Z,20.63
2022-07-26T12:52:35.471Z,12.30
2022-07-26T12:58:37.902Z,12.52
2022-07-26T13:04:40.331Z,9.15
2022-07-26T13:10:42.858Z,8.73
2022-07-26T13:16:45.342Z,11.07
2022-07-26T13:22:47.495Z,13.07
2022-07-26T13:28:50.534Z,17.38
2022-07-26T13:34:52.802Z,14.77
2022-07-26T13:40:55.099Z,14.68
2022-07-26T13:46:57.481Z,9.40
2022-07-26T13:52:59.573Z,11.55
2022-07-26T13:59:01.932Z,19.15
2022-07-26T14:05:04.622Z,10.52
2022-07-26T14:11:07.018Z,9.65
2022-07-26T14:17:09.324Z,9.55
2022-07-26T14:23:11.599Z,8.55
2022-07-26T14:29:13.881Z,11.07
2022-07-26T14:35:17.670Z,13.35
2022-07-26T14:41:19.904Z,19.27
2022-07-26T14:47:22.070Z,8.35
2022-07-26T14:53:25.360Z,7.35
2022-07-26T14:59:27.661Z,8.25
2022-07-26T15:05:30.489Z,8.80
2022-07-26T15:11:33.010Z,11.98
2022-07-26T15:17:35.824Z,11.50
2022-07-26T15:23:39.745Z,10.95
2022-07-26T15:29:42.382Z,12.88
2022-07-26T15:35:44.551Z,8.25
2022-07-26T15:41:48.780Z,10.65
2022-07-26T15:47:57.649Z,9.77
2022-07-26T15:54:05.016Z,13.60
2022-07-26T16:00:11.386Z,15.18
2022-07-26T16:06:14.094Z,9.88
2022-07-26T16:12:16.982Z,10.55
2022-07-26T16:18:19.513Z,11.07
2022-07-26T16:24:22.054Z,10.68
2022-07-26T16:30:25.199Z,10.20
2022-07-26T16:36:27.710Z,11.93
2022-07-26T16:42:29.843Z,12.77
2022-07-26T16:48:32.926Z,7.68
2022-07-26T16:54:35.395Z,10.88
2022-07-26T17:00:37.778Z,9.35
2022-07-26T17:06:40.353Z,10.80
2022-07-26T17:12:42.665Z,14.88
2022-07-26T17:18:46.296Z,10.55
2022-07-26T17:24:48.780Z,12.95
2022-07-26T17:30:51.598Z,9.85
2022-07-26T17:37:00.919Z,8.63
2022-07-26T17:43:04.782Z,12.25
2022-07-26T17:49:07.802Z,10.93
2022-07-26T17:55:10.794Z,11.63
2022-07-26T18:01:13.208Z,14.63
2022-07-26T18:07:15.942Z,12.70
2022-07-26T18:13:18.188Z,12.05
2022-07-26T18:19:20.324Z,18.02
2022-07-26T18:25:22.482Z,18.02
2022-07-26T18:31:24.874Z,16.08
2022-07-26T18:37:27.148Z,12.80
2022-07-26T18:43:29.233Z,11.52
2022-07-26T18:49:32.815Z,16.98
2022-07-26T18:55:37.242Z,19.80
2022-07-26T19:01:39.448Z,40.53
2022-07-26T19:07:41.848Z,23.20
2022-07-26T19:13:44.085Z,31.63
2022-07-26T19:19:46.209Z,97.93
2022-07-26T19:25:48.415Z,211.18
2022-07-26T19:31:50.635Z,312.23
2022-07-26T19:37:52.929Z,207.57
2022-07-26T19:43:55.497Z,148.02
2022-07-26T19:49:59.051Z,84.55
2022-07-26T19:56:01.484Z,61.75
2022-07-26T20:02:05.948Z,56.38
2022-07-26T20:08:08.167Z,28.90
2022-07-26T20:14:10.327Z,35.30
2022-07-26T20:20:13.496Z,27.88
2022-07-26T20:26:15.834Z,24.52
2022-07-26T20:32:18.170Z,39.42
2022-07-26T20:38:20.530Z,34.47
2022-07-26T20:44:27.638Z,30.52
2022-07-26T20:50:30.869Z,44.00
2022-07-26T20:56:33.403Z,35.47
2022-07-26T21:02:35.755Z,30.02
2022-07-26T21:08:38.118Z,36.95
2022-07-26T21:14:40.391Z,35.58
2022-07-26T21:20:43.103Z,47.30
2022-07-26T21:26:45.924Z,36.00
2022-07-26T21:32:47.946Z,60.45
2022-07-26T21:38:50.304Z,32.20
2022-07-26T21:44:52.614Z,31.80
2022-07-26T21:50:55.440Z,31.35
2022-07-26T21:56:57.727Z,19.35
2022-07-26T22:03:00.192Z,21.58
2022-07-26T22:09:03.125Z,21.98
2022-07-26T22:15:05.767Z,23.58
2022-07-26T22:21:08.617Z,20.80
2022-07-26T22:27:10.827Z,23.13
2022-07-26T22:33:13.430Z,25.42
2022-07-26T22:39:15.999Z,17.02
2022-07-26T22:45:18.669Z,16.25
2022-07-26T22:51:20.803Z,19.55
2022-07-26T22:57:23.350Z,21.42
2022-07-26T23:03:25.723Z,17.92
2022-07-26T23:09:30.148Z,16.73
2022-07-26T23:15:32.337Z,20.15
2022-07-26T23:21:34.528Z,20.45
2022-07-26T23:27:36.823Z,18.85
2022-07-26T23:33:50.644Z,23.55
2022-07-26T23:39:55.753Z,19.23
2022-07-26T23:45:58.406Z,18.77
2022-07-26T23:52:00.851Z,21.20
2022-07-26T23:58:03.172Z,22.63
